Time;durP1;ratioP1;P1;durP2;ratioP2;P2;SDS_P1;SDS_P2;PMS_P1;PMS_P2;Temp;Humidity;BMP_temperature;BMP_pressure;BME280_temperature;BME280_humidity;BME280_pressure;Samples;Min_cycle;Max_cycle;Signal;HPM_P1;HPM_P2
2022/12/17 13:08:23;;;;;;;22.95;14.48;;;0.90;99.90;;;;;;5059887;28;20233;-78
2022/12/17 13:10:50;;;;;;;25.92;14.85;;;1.10;99.90;;;;;;5051000;28;20189;-78
2022/12/17 13:13:25;;;;;;;23.75;14.07;;;1.40;99.90;;;;;;5060184;28;20172;-79
2022/12/17 13:16:21;;;;;;;24.90;15.15;;;1.50;99.90;;;;;;5059381;28;20526;-79
2022/12/17 13:18:47;;;;;;;21.85;13.63;;;1.60;99.90;;;;;;5039302;28;20195;-80
2022/12/17 13:21:15;;;;;;;22.00;12.60;;;1.40;99.90;;;;;;5025676;28;20280;-79
2022/12/17 13:23:42;;;;;;;23.58;13.13;;;1.50;99.90;;;;;;5042251;28;20189;-78
2022/12/17 13:26:16;;;;;;;24.60;13.10;;;1.70;99.90;;;;;;5039715;28;20181;-80
2022/12/17 13:28:48;;;;;;;23.60;13.65;;;2.00;99.90;;;;;;5038090;28;20669;-81
2022/12/17 13:31:23;;;;;;;25.05;13.43;;;2.00;99.90;;;;;;5037936;28;20206;-80
2022/12/17 13:34:10;;;;;;;17.75;11.20;;;2.30;99.90;;;;;;5039284;28;20175;-82
2022/12/17 13:37:02;;;;;;;22.08;12.90;;;2.20;99.90;;;;;;5039027;28;20195;-81
2022/12/17 13:39:30;;;;;;;21.73;11.93;;;2.50;99.90;;;;;;5042217;28;20231;-81
2022/12/17 13:41:56;;;;;;;20.40;11.52;;;2.50;99.90;;;;;;5059058;28;20259;-81
2022/12/17 13:44:24;;;;;;;17.57;12.00;;;2.70;99.90;;;;;;5058943;28;20504;-81
2022/12/17 13:46:52;;;;;;;21.70;11.15;;;2.70;99.90;;;;;;5058130;28;20632;-79
2022/12/17 13:49:22;;;;;;;22.77;14.07;;;2.70;99.90;;;;;;5057866;28;20235;-79
2022/12/17 13:52:00;;;;;;;17.25;11.35;;;2.60;99.90;;;;;;5059023;28;20701;-78
2022/12/17 13:54:25;;;;;;;20.30;11.95;;;2.60;99.90;;;;;;5058976;28;20165;-78
2022/12/17 13:56:52;;;;;;;19.93;12.03;;;2.60;99.90;;;;;;5058819;28;20650;-78
2022/12/17 13:59:23;;;;;;;22.75;12.15;;;2.70;99.90;;;;;;5057404;28;20185;-78
2022/12/17 14:01:52;;;;;;;17.55;11.95;;;2.50;99.90;;;;;;5058117;28;20176;-78
2022/12/17 14:04:23;;;;;;;20.35;11.45;;;2.20;99.90;;;;;;5059244;28;20242;-81
2022/12/17 14:06:50;;;;;;;19.42;13.63;;;1.70;99.90;;;;;;5057700;28;20544;-80
2022/12/17 14:09:18;;;;;;;23.52;12.43;;;1.50;99.90;;;;;;5056138;28;20608;-80
2022/12/17 14:14:40;;;;;;;23.30;12.50;;;1.10;99.90;;;;;;5058388;28;20175;-82
2022/12/17 14:17:13;;;;;;;23.63;13.77;;;0.90;99.90;;;;;;5058446;28;20176;-82
2022/12/17 14:19:39;;;;;;;25.90;15.40;;;0.60;99.90;;;;;;5059495;28;20514;-80
2022/12/17 14:22:04;;;;;;;24.93;14.30;;;0.50;99.90;;;;;;5057918;28;20186;-85
2022/12/17 14:24:30;;;;;;;24.80;15.10;;;0.40;99.90;;;;;;5058148;28;20173;-81
2022/12/17 14:26:58;;;;;;;23.17;14.37;;;0.20;99.90;;;;;;5057181;28;20306;-81
2022/12/17 14:29:29;;;;;;;33.45;20.55;;;0.10;99.90;;;;;;5077144;28;21043;-80
2022/12/17 14:31:58;;;;;;;21.77;12.80;;;-0.10;99.90;;;;;;5078162;28;20282;-81
2022/12/17 14:34:23;;;;;;;26.20;13.13;;;-0.10;99.90;;;;;;5078529;28;20180;-81
2022/12/17 14:36:55;;;;;;;20.47;14.03;;;-0.30;99.90;;;;;;5052355;28;20698;-80
2022/12/17 14:39:31;;;;;;;24.88;13.68;;;-0.40;99.90;;;;;;5057058;28;20758;-81
2022/12/17 14:42:24;;;;;;;24.30;13.82;;;-0.50;99.90;;;;;;5055515;28;20182;-80
2022/12/17 14:44:56;;;;;;;21.52;14.25;;;-0.50;99.90;;;;;;5054631;28;20178;-82
2022/12/17 14:47:29;;;;;;;27.65;16.25;;;-0.60;99.90;;;;;;5055561;28;20174;-81
2022/12/17 14:50:06;;;;;;;26.15;15.77;;;-0.70;99.90;;;;;;5053333;28;20227;-81
2022/12/17 14:52:47;;;;;;;27.50;14.20;;;-0.80;99.90;;;;;;5051414;28;20313;-81
2022/12/17 14:55:38;;;;;;;25.02;16.02;;;-0.80;99.90;;;;;;5057768;28;20166;-81
2022/12/17 14:58:15;;;;;;;21.65;13.15;;;-0.90;99.90;;;;;;5051454;28;20206;-80
2022/12/17 15:00:43;;;;;;;27.30;17.33;;;-0.80;99.90;;;;;;5057954;28;20242;-80
2022/12/17 15:03:13;;;;;;;33.00;15.00;;;-0.90;99.90;;;;;;5057362;28;20660;-81
2022/12/17 15:05:40;;;;;;;23.83;14.05;;;-1.00;99.90;;;;;;5057996;28;20162;-82
2022/12/17 15:08:05;;;;;;;24.80;13.37;;;-1.00;99.90;;;;;;5058225;28;20232;-80
2022/12/17 15:10:31;;;;;;;28.73;14.37;;;-1.10;99.90;;;;;;5057198;28;20181;-80
2022/12/17 15:12:57;;;;;;;23.93;13.60;;;-1.20;99.90;;;;;;5040280;28;20300;-80
2022/12/17 15:15:23;;;;;;;35.75;19.60;;;-1.30;99.90;;;;;;5056084;28;20596;-80
2022/12/17 15:17:48;;;;;;;30.80;15.50;;;-1.40;99.90;;;;;;5023769;28;20181;-81
2022/12/17 15:20:20;;;;;;;23.00;12.40;;;-1.40;99.90;;;;;;5056176;28;20193;-85
2022/12/17 15:22:46;;;;;;;25.98;13.88;;;-1.50;99.90;;;;;;5055739;28;20249;-86
2022/12/17 15:25:14;;;;;;;22.58;14.50;;;-1.60;99.90;;;;;;5055439;28;20700;-85
2022/12/17 15:27:39;;;;;;;24.92;13.85;;;-1.70;99.90;;;;;;5055017;28;20181;-85
2022/12/17 15:30:06;;;;;;;18.87;12.33;;;-1.80;99.90;;;;;;5054997;28;20742;-85
2022/12/17 15:32:31;;;;;;;21.98;12.77;;;-1.90;99.90;;;;;;5055541;28;20291;-85
2022/12/17 15:34:57;;;;;;;30.47;18.80;;;-2.00;99.90;;;;;;5039030;28;20633;-85
2022/12/17 15:37:23;;;;;;;31.50;15.50;;;-2.00;99.90;;;;;;5055465;28;20182;-85
2022/12/17 15:39:48;;;;;;;25.50;15.53;;;-2.00;99.90;;;;;;5055310;28;20618;-85
2022/12/17 15:44:58;;;;;;;34.45;20.20;;;-2.20;99.90;;;;;;5056474;28;20641;-85
2022/12/17 15:47:24;;;;;;;36.83;18.00;;;-2.20;99.90;;;;;;5054628;28;20223;-85
2022/12/17 15:49:49;;;;;;;37.07;20.40;;;-2.30;99.90;;;;;;5055825;28;20188;-82
2022/12/17 15:52:15;;;;;;;25.17;16.20;;;-2.40;99.90;;;;;;5055710;28;20299;-83
2022/12/17 15:54:43;;;;;;;24.37;13.03;;;-2.40;99.90;;;;;;5057304;28;20178;-83
2022/12/17 15:57:09;;;;;;;26.35;14.38;;;-2.50;99.90;;;;;;5055629;28;20188;-85
2022/12/17 15:59:35;;;;;;;27.97;17.13;;;-2.60;99.90;;;;;;5055868;28;20544;-85
2022/12/17 16:02:01;;;;;;;25.63;15.50;;;-2.70;99.90;;;;;;5056712;28;20490;-84
2022/12/17 16:04:27;;;;;;;26.57;16.80;;;-2.80;99.90;;;;;;5056555;28;20404;-84
2022/12/17 16:06:53;;;;;;;30.20;16.63;;;-2.80;99.90;;;;;;5056285;28;20405;-83
2022/12/17 16:09:23;;;;;;;24.00;16.40;;;-2.90;99.90;;;;;;5054724;28;20232;-83
2022/12/17 16:11:51;;;;;;;28.25;16.35;;;-2.90;99.90;;;;;;5055158;28;20197;-83
2022/12/17 16:14:16;;;;;;;35.30;15.20;;;-3.00;99.90;;;;;;5055934;28;20184;-82
2022/12/17 16:16:42;;;;;;;26.10;15.63;;;-3.00;99.90;;;;;;5056520;28;20196;-84
2022/12/17 16:19:09;;;;;;;35.15;18.30;;;-3.10;99.90;;;;;;5055209;28;20235;-83
2022/12/17 16:21:35;;;;;;;41.17;22.45;;;-3.20;99.90;;;;;;5054951;28;20243;-84
2022/12/17 16:24:00;;;;;;;49.47;28.50;;;-3.30;99.90;;;;;;5056124;28;20631;-83
2022/12/17 16:26:26;;;;;;;85.60;39.37;;;-3.40;99.90;;;;;;5054870;28;20185;-84
2022/12/17 16:28:51;;;;;;;77.50;33.73;;;-3.40;99.90;;;;;;5054362;28;20730;-83
2022/12/17 16:31:17;;;;;;;50.37;26.97;;;-3.50;99.90;;;;;;5055944;28;20593;-84
2022/12/17 16:33:46;;;;;;;34.60;19.07;;;-3.60;99.90;;;;;;5055870;28;20537;-83
2022/12/17 16:36:14;;;;;;;28.13;16.10;;;-3.70;99.90;;;;;;5055918;28;20517;-84
2022/12/17 16:38:49;;;;;;;24.38;14.55;;;-3.70;99.90;;;;;;5054852;28;20214;-84
2022/12/17 16:41:15;;;;;;;26.27;14.82;;;-3.80;99.90;;;;;;5055825;28;20168;-81
2022/12/17 16:43:41;;;;;;;27.88;14.05;;;-3.90;99.90;;;;;;5056197;28;20173;-81
2022/12/17 16:46:37;;;;;;;29.50;16.70;;;-3.90;99.90;;;;;;5056387;28;20183;-81
2022/12/17 16:49:10;;;;;;;32.28;17.25;;;-4.00;99.90;;;;;;5050490;28;20437;-81
2022/12/17 16:51:35;;;;;;;53.70;25.40;;;-4.00;99.90;;;;;;5055600;28;20214;-81
2022/12/17 16:54:07;;;;;;;52.17;26.80;;;-4.10;99.90;;;;;;5055787;28;20233;-81
2022/12/17 16:56:33;;;;;;;45.53;21.40;;;-4.10;99.90;;;;;;5054604;28;20187;-84
2022/12/17 16:59:03;;;;;;;27.90;16.02;;;-4.10;99.90;;;;;;5055487;28;20183;-82
2022/12/17 17:01:29;;;;;;;27.52;14.77;;;-4.20;99.90;;;;;;5054260;28;20182;-82
2022/12/17 17:03:55;;;;;;;30.77;15.67;;;-4.10;99.90;;;;;;5038461;28;20183;-82
2022/12/17 17:06:22;;;;;;;31.08;18.27;;;-4.20;99.90;;;;;;5034670;28;20191;-82
2022/12/17 17:08:47;;;;;;;33.05;19.50;;;-4.30;99.90;;;;;;5035471;28;20717;-81
2022/12/17 17:11:20;;;;;;;32.17;18.07;;;-4.30;99.90;;;;;;5034778;28;20184;-82
2022/12/17 17:13:52;;;;;;;44.05;21.23;;;-4.30;99.90;;;;;;5035502;28;20186;-81
2022/12/17 17:16:22;;;;;;;34.60;18.23;;;-4.30;99.90;;;;;;5034137;28;20174;-82
2022/12/17 17:18:48;;;;;;;34.97;20.08;;;-4.40;99.90;;;;;;5044955;28;20182;-82
2022/12/17 17:21:20;;;;;;;38.53;21.67;;;-4.40;99.90;;;;;;5054289;28;20183;-83
2022/12/17 17:23:47;;;;;;;45.15;24.63;;;-4.40;99.90;;;;;;5054248;28;20215;-81
2022/12/17 17:26:13;;;;;;;49.75;25.40;;;-4.50;99.90;;;;;;5055963;28;20265;-81
2022/12/17 17:28:39;;;;;;;36.08;18.65;;;-4.50;99.90;;;;;;5054735;28;20190;-85
2022/12/17 17:31:12;;;;;;;37.90;19.60;;;-4.50;99.90;;;;;;5055928;28;20174;-84
2022/12/17 17:33:45;;;;;;;29.75;15.90;;;-4.60;99.90;;;;;;5055570;28;20193;-83
2022/12/17 17:36:23;;;;;;;29.35;17.20;;;-4.60;99.90;;;;;;5054488;28;20262;-84
2022/12/17 17:38:51;;;;;;;29.70;17.02;;;-4.60;99.90;;;;;;5055081;28;20281;-84
2022/12/17 17:41:19;;;;;;;31.85;15.68;;;-4.60;99.90;;;;;;5054044;28;20184;-87
2022/12/17 17:43:45;;;;;;;29.80;14.95;;;-4.70;99.90;;;;;;5054150;28;20179;-85
2022/12/17 17:46:17;;;;;;;30.15;14.65;;;-4.70;99.90;;;;;;5055591;28;20568;-84
2022/12/17 17:48:44;;;;;;;23.30;14.43;;;-4.70;99.90;;;;;;5054828;28;20555;-84
2022/12/17 17:51:12;;;;;;;25.15;14.60;;;-4.70;99.90;;;;;;5058341;28;20675;-79
2022/12/17 17:53:37;;;;;;;26.92;14.25;;;-4.70;99.90;;;;;;5059522;28;20193;-78
2022/12/17 17:56:06;;;;;;;28.67;15.57;;;-4.80;99.90;;;;;;5059624;28;20185;-79
2022/12/17 17:58:33;;;;;;;23.70;13.73;;;-4.80;99.90;;;;;;5074973;28;20180;-79
2022/12/17 18:01:05;;;;;;;26.60;14.63;;;-4.80;99.90;;;;;;5058596;28;20646;-79
2022/12/17 18:03:31;;;;;;;27.98;13.70;;;-4.80;99.90;;;;;;5059311;28;20172;-79
2022/12/17 18:06:01;;;;;;;23.20;14.43;;;-4.90;99.90;;;;;;5042354;28;20634;-79
2022/12/17 18:08:29;;;;;;;23.73;13.95;;;-4.90;99.90;;;;;;5058387;28;20223;-79
2022/12/17 18:10:56;;;;;;;20.65;13.13;;;-4.90;99.90;;;;;;5058984;28;20178;-79
2022/12/17 18:16:06;;;;;;;28.40;14.32;;;-4.90;99.90;;;;;;5058408;28;20179;-79
2022/12/17 18:18:32;;;;;;;23.43;14.73;;;-4.90;99.90;;;;;;5059360;28;20190;-79
2022/12/17 18:21:25;;;;;;;36.33;15.50;;;-5.00;99.90;;;;;;5044667;28;20270;-79
2022/12/17 18:24:04;;;;;;;25.75;14.55;;;-5.00;99.90;;;;;;5037437;28;20189;-78
2022/12/17 18:26:31;;;;;;;27.17;15.13;;;-5.00;99.90;;;;;;5039580;28;20192;-79
2022/12/17 18:29:01;;;;;;;30.52;15.18;;;-5.00;99.90;;;;;;5054948;28;20659;-79
2022/12/17 18:31:27;;;;;;;25.02;15.15;;;-5.00;99.90;;;;;;5045276;28;20535;-82
2022/12/17 18:33:58;;;;;;;25.77;14.53;;;-5.00;99.90;;;;;;5059300;28;20192;-81
2022/12/17 18:36:29;;;;;;;23.48;13.13;;;-5.00;99.90;;;;;;5058998;28;20390;-81
2022/12/17 18:39:22;;;;;;;24.48;13.55;;;-5.00;99.90;;;;;;5058913;28;20556;-81
2022/12/17 18:44:36;;;;;;;20.73;11.85;;;-5.10;99.90;;;;;;5059931;28;20224;-80
2022/12/17 18:47:02;;;;;;;25.50;12.32;;;-5.10;99.90;;;;;;5059731;28;20173;-80
2022/12/17 18:49:27;;;;;;;33.07;14.90;;;-5.10;99.90;;;;;;5057539;28;20529;-80
2022/12/17 18:51:53;;;;;;;35.00;16.73;;;-5.10;99.90;;;;;;5059430;28;20468;-80
2022/12/17 18:54:22;;;;;;;29.03;15.67;;;-5.10;99.90;;;;;;5058283;28;20533;-80
2022/12/17 18:56:49;;;;;;;32.30;16.05;;;-5.10;99.90;;;;;;5057615;28;20420;-80
2022/12/17 18:59:17;;;;;;;25.83;14.52;;;-5.10;99.90;;;;;;5055299;28;20611;-80
2022/12/17 19:01:43;;;;;;;31.45;15.57;;;-5.10;99.90;;;;;;5038316;28;20179;-80
2022/12/17 19:04:11;;;;;;;25.33;14.95;;;-5.10;99.90;;;;;;5041137;28;20537;-80
2022/12/17 19:06:38;;;;;;;25.92;14.00;;;-5.10;99.90;;;;;;5060057;28;20173;-80
2022/12/17 19:09:05;;;;;;;25.23;14.80;;;-5.10;99.90;;;;;;5058525;28;20288;-80
2022/12/17 19:11:33;;;;;;;21.63;13.57;;;-5.10;99.90;;;;;;5059063;28;20198;-79
2022/12/17 19:13:59;;;;;;;23.45;13.23;;;-5.10;99.90;;;;;;5059783;28;20181;-80
2022/12/17 19:16:27;;;;;;;24.38;13.27;;;-5.10;99.90;;;;;;5059204;28;20260;-80
2022/12/17 19:18:58;;;;;;;25.77;14.00;;;-5.10;99.90;;;;;;5037638;28;20554;-80
2022/12/17 19:21:25;;;;;;;27.48;13.20;;;-5.20;99.90;;;;;;5038815;28;20249;-80
2022/12/17 19:23:55;;;;;;;22.67;12.95;;;-5.20;99.90;;;;;;5039222;28;20182;-80
2022/12/17 19:26:21;;;;;;;21.55;11.70;;;-5.20;99.90;;;;;;5037237;28;20175;-80
2022/12/17 19:28:49;;;;;;;20.50;12.20;;;-5.10;99.90;;;;;;5038735;28;20678;-80
2022/12/17 19:31:17;;;;;;;22.05;13.93;;;-5.20;99.90;;;;;;5054088;28;20788;-80
2022/12/17 19:33:44;;;;;;;18.92;11.45;;;-5.20;99.90;;;;;;5056719;28;20197;-80
2022/12/17 19:36:13;;;;;;;20.73;11.60;;;-5.20;99.90;;;;;;5057701;28;20634;-80
2022/12/17 19:38:40;;;;;;;25.20;13.63;;;-5.20;99.90;;;;;;5057516;28;20770;-80
2022/12/17 19:41:14;;;;;;;23.77;12.30;;;-5.20;99.90;;;;;;5058851;28;20201;-80
2022/12/17 19:43:40;;;;;;;23.05;12.02;;;-5.20;99.90;;;;;;5056946;28;20681;-80
2022/12/17 19:46:08;;;;;;;19.70;11.80;;;-5.20;99.90;;;;;;5057074;28;20180;-80
2022/12/17 19:48:36;;;;;;;26.88;12.73;;;-5.20;99.90;;;;;;5057650;28;20193;-80
2022/12/17 19:51:03;;;;;;;26.95;12.70;;;-5.20;99.90;;;;;;5058452;28;20189;-80
2022/12/17 19:53:29;;;;;;;23.95;12.27;;;-5.30;99.90;;;;;;5056942;28;20189;-81
2022/12/17 19:55:56;;;;;;;25.13;12.73;;;-5.30;99.90;;;;;;5057839;28;20266;-80
2022/12/17 19:58:23;;;;;;;23.95;12.43;;;-5.30;99.90;;;;;;5058235;28;20192;-80
2022/12/17 20:00:49;;;;;;;22.77;13.25;;;-5.30;99.90;;;;;;5056785;28;20181;-80
2022/12/17 20:03:15;;;;;;;22.85;14.25;;;-5.30;99.90;;;;;;5058361;28;20224;-80
2022/12/17 20:05:45;;;;;;;28.60;14.70;;;-5.40;99.90;;;;;;5057303;28;20629;-80
2022/12/17 20:08:12;;;;;;;32.45;15.25;;;-5.40;99.90;;;;;;5058225;28;20468;-80
2022/12/17 20:10:38;;;;;;;36.17;16.45;;;-5.40;99.90;;;;;;5073169;28;20224;-79
2022/12/17 20:13:04;;;;;;;25.90;14.27;;;-5.40;99.90;;;;;;5057227;28;20235;-80
2022/12/17 20:15:29;;;;;;;36.00;16.70;;;-5.40;99.90;;;;;;5058427;28;20606;-80
2022/12/17 20:17:55;;;;;;;25.80;13.77;;;-5.40;99.90;;;;;;5058321;28;20181;-80
2022/12/17 20:20:21;;;;;;;27.23;14.93;;;-5.40;99.90;;;;;;5057733;28;20178;-80
2022/12/17 20:22:47;;;;;;;26.40;15.30;;;-5.40;99.90;;;;;;5057727;28;20184;-80
2022/12/17 20:25:12;;;;;;;29.63;16.43;;;-5.40;99.90;;;;;;5058577;28;20187;-80
2022/12/17 20:27:38;;;;;;;26.33;14.33;;;-5.40;99.90;;;;;;5057959;28;20233;-80
2022/12/17 20:30:05;;;;;;;27.90;14.87;;;-5.40;99.90;;;;;;5056322;28;20186;-80
2022/12/17 20:32:31;;;;;;;30.85;15.75;;;-5.40;99.90;;;;;;5057817;28;20197;-80
2022/12/17 20:34:56;;;;;;;28.17;15.63;;;-5.40;99.90;;;;;;5056682;28;20186;-80
2022/12/17 20:37:22;;;;;;;30.40;15.63;;;-5.40;99.90;;;;;;5057513;28;20174;-80
2022/12/17 20:39:47;;;;;;;26.27;15.17;;;-5.40;99.90;;;;;;5057493;28;20187;-80
2022/12/17 20:42:13;;;;;;;26.53;14.90;;;-5.40;99.90;;;;;;5023362;28;20181;-80
2022/12/17 20:44:38;;;;;;;27.80;14.13;;;-5.40;99.90;;;;;;5057756;28;20182;-80
2022/12/17 20:47:04;;;;;;;30.60;16.60;;;-5.40;99.90;;;;;;5055980;28;20212;-80
2022/12/17 20:49:30;;;;;;;29.27;14.77;;;-5.40;99.90;;;;;;5055946;28;20178;-80
2022/12/17 20:51:56;;;;;;;28.83;15.05;;;-5.40;99.90;;;;;;5039731;28;20244;-80
2022/12/17 20:54:21;;;;;;;27.97;15.37;;;-5.40;99.90;;;;;;5056560;28;20185;-80
2022/12/17 20:56:47;;;;;;;27.70;16.50;;;-5.40;99.90;;;;;;5057440;28;20165;-80
2022/12/17 20:59:15;;;;;;;27.10;15.50;;;-5.40;99.90;;;;;;5056524;28;20423;-80
2022/12/17 21:01:41;;;;;;;24.95;14.90;;;-5.40;99.90;;;;;;5058761;28;20417;-79
2022/12/17 21:04:07;;;;;;;31.37;17.20;;;-5.50;99.90;;;;;;5023063;28;20186;-79
2022/12/17 21:06:41;;;;;;;29.90;16.50;;;-5.50;99.90;;;;;;5055315;28;20458;-79
2022/12/17 21:09:07;;;;;;;30.27;15.75;;;-5.50;99.90;;;;;;5056149;28;20320;-81
2022/12/17 21:11:34;;;;;;;34.55;16.58;;;-5.50;99.90;;;;;;5056860;28;20274;-80
2022/12/17 21:14:06;;;;;;;25.60;15.13;;;-5.50;99.90;;;;;;5056713;28;20201;-79
2022/12/17 21:16:32;;;;;;;28.65;15.85;;;-5.60;99.90;;;;;;5057500;28;20195;-79
2022/12/17 21:18:59;;;;;;;32.63;16.20;;;-5.60;99.90;;;;;;5039971;28;20538;-79
2022/12/17 21:21:30;;;;;;;29.98;15.80;;;-5.60;99.90;;;;;;5057973;28;20185;-78
2022/12/17 21:23:57;;;;;;;31.67;15.40;;;-5.60;99.90;;;;;;5057661;28;20174;-79
2022/12/17 21:26:34;;;;;;;33.20;16.52;;;-5.60;99.90;;;;;;5061964;28;20180;-79
2022/12/17 21:29:02;;;;;;;29.98;16.75;;;-5.60;99.90;;;;;;5062101;28;20213;-79
2022/12/17 21:31:39;;;;;;;32.20;16.67;;;-5.60;99.90;;;;;;5061632;28;20201;-79
2022/12/17 21:34:09;;;;;;;28.02;15.20;;;-5.60;99.90;;;;;;5061597;28;20417;-79
2022/12/17 21:36:35;;;;;;;28.33;15.93;;;-5.50;99.90;;;;;;5061043;28;20182;-79
2022/12/17 21:39:02;;;;;;;28.95;16.55;;;-5.60;99.90;;;;;;5061832;28;20181;-80
2022/12/17 21:41:32;;;;;;;32.67;16.40;;;-5.60;99.90;;;;;;5061069;28;20539;-79
2022/12/17 21:44:05;;;;;;;32.70;16.60;;;-5.60;99.90;;;;;;5059786;28;20181;-80
2022/12/17 21:46:31;;;;;;;34.17;17.42;;;-5.60;99.90;;;;;;5060852;28;20197;-79
2022/12/17 21:48:58;;;;;;;28.98;17.13;;;-5.60;99.90;;;;;;5059935;28;20667;-79
2022/12/17 21:51:25;;;;;;;25.08;14.38;;;-5.60;99.90;;;;;;5061280;28;20547;-79
2022/12/17 21:53:56;;;;;;;28.52;16.00;;;-5.60;99.90;;;;;;5059279;28;20240;-81
2022/12/17 21:56:22;;;;;;;38.35;16.73;;;-5.60;99.90;;;;;;5059355;28;20174;-82
2022/12/17 21:58:48;;;;;;;30.60;15.85;;;-5.60;99.90;;;;;;5059840;28;20690;-79
2022/12/17 22:01:22;;;;;;;30.85;16.77;;;-5.70;99.90;;;;;;5060731;28;20178;-81
2022/12/17 22:03:48;;;;;;;33.08;16.27;;;-5.70;99.90;;;;;;5058969;28;20227;-81
2022/12/17 22:06:17;;;;;;;27.23;14.95;;;-5.70;99.90;;;;;;5059272;28;20174;-81
2022/12/17 22:08:44;;;;;;;34.63;17.58;;;-5.70;99.90;;;;;;5058665;28;20268;-81
2022/12/17 22:11:11;;;;;;;35.78;14.55;;;-5.70;99.90;;;;;;5058855;28;20268;-81
2022/12/17 22:16:23;;;;;;;22.88;14.00;;;-5.70;99.90;;;;;;5060418;28;20535;-82
2022/12/17 22:18:49;;;;;;;24.20;13.55;;;-5.70;99.90;;;;;;5058649;28;20630;-79
2022/12/17 22:21:15;;;;;;;27.87;15.47;;;-5.70;99.90;;;;;;5060796;28;20178;-80
2022/12/17 22:23:41;;;;;;;25.40;12.77;;;-5.70;99.90;;;;;;5059605;28;20908;-81
2022/12/17 22:26:10;;;;;;;30.07;16.43;;;-5.80;99.90;;;;;;5052351;28;20200;-81
2022/12/17 22:28:36;;;;;;;26.05;14.63;;;-5.80;99.90;;;;;;5050397;28;20197;-81
2022/12/17 22:33:50;;;;;;;31.42;16.10;;;-5.80;99.90;;;;;;5047775;28;20726;-82
2022/12/17 22:36:16;;;;;;;31.10;18.60;;;-5.80;99.90;;;;;;5048098;28;20270;-81
2022/12/17 22:38:42;;;;;;;34.83;16.77;;;-5.80;99.90;;;;;;5043242;28;20515;-82
2022/12/17 22:41:08;;;;;;;28.43;16.80;;;-5.80;99.90;;;;;;5051595;28;20436;-81
2022/12/17 22:43:34;;;;;;;29.73;14.87;;;-5.80;99.90;;;;;;5048113;28;20205;-81
2022/12/17 22:46:04;;;;;;;28.00;15.68;;;-5.80;99.90;;;;;;5046953;28;20571;-81
2022/12/17 22:48:31;;;;;;;25.40;13.13;;;-5.80;99.90;;;;;;5061412;28;20624;-81
2022/12/17 22:50:57;;;;;;;27.83;14.73;;;-5.90;99.90;;;;;;5051183;28;20178;-81
2022/12/17 22:53:24;;;;;;;28.03;14.10;;;-5.90;99.90;;;;;;5047975;28;20243;-82
2022/12/17 22:55:50;;;;;;;25.65;14.13;;;-5.90;99.90;;;;;;5051317;28;20429;-81
2022/12/17 22:58:16;;;;;;;27.85;15.13;;;-5.90;99.90;;;;;;5056274;28;20244;-81
2022/12/17 23:00:42;;;;;;;27.42;13.98;;;-5.90;99.90;;;;;;5045838;28;20251;-81
2022/12/17 23:03:07;;;;;;;27.73;14.93;;;-5.90;99.90;;;;;;5047037;28;20593;-81
2022/12/17 23:05:33;;;;;;;29.23;13.30;;;-5.90;99.90;;;;;;5058257;28;20587;-81
2022/12/17 23:07:59;;;;;;;27.33;13.80;;;-6.00;99.90;;;;;;5055686;28;20237;-81
2022/12/17 23:10:27;;;;;;;28.35;13.90;;;-6.00;99.90;;;;;;5049267;28;20189;-81
2022/12/17 23:12:53;;;;;;;26.80;14.45;;;-6.00;99.90;;;;;;5051989;28;20210;-81
2022/12/17 23:15:22;;;;;;;32.22;14.40;;;-6.00;99.90;;;;;;5044665;28;20182;-81
2022/12/17 23:17:48;;;;;;;23.80;13.63;;;-6.10;99.90;;;;;;5045741;28;20643;-81
2022/12/17 23:20:14;;;;;;;24.43;12.70;;;-6.10;99.90;;;;;;5050811;28;20186;-81
2022/12/17 23:22:40;;;;;;;23.45;13.02;;;-6.10;99.90;;;;;;5043437;28;20443;-81
2022/12/17 23:25:06;;;;;;;30.00;15.20;;;-6.10;99.90;;;;;;5070375;28;20184;-81
2022/12/17 23:27:32;;;;;;;21.77;13.38;;;-6.10;99.90;;;;;;5051738;28;20468;-81
2022/12/17 23:29:58;;;;;;;26.37;15.00;;;-6.20;99.90;;;;;;5031112;28;20565;-81
2022/12/17 23:32:24;;;;;;;23.30;14.50;;;-6.10;99.90;;;;;;5045325;28;20472;-81
2022/12/17 23:34:49;;;;;;;25.87;14.53;;;-6.20;99.90;;;;;;5043007;28;20198;-81
2022/12/17 23:37:15;;;;;;;23.40;12.57;;;-6.20;99.90;;;;;;5059917;28;20788;-81
2022/12/17 23:39:40;;;;;;;20.27;12.17;;;-6.10;99.90;;;;;;5073436;28;20173;-81
2022/12/17 23:42:06;;;;;;;23.27;12.60;;;-6.20;99.90;;;;;;5056129;28;20628;-80
2022/12/17 23:44:32;;;;;;;27.70;12.93;;;-6.20;99.90;;;;;;5056631;28;20192;-81
2022/12/17 23:46:57;;;;;;;24.20;13.17;;;-6.20;99.90;;;;;;5054709;28;20692;-82
2022/12/17 23:49:23;;;;;;;26.77;13.67;;;-6.20;99.90;;;;;;5056166;28;20265;-82
2022/12/17 23:51:48;;;;;;;32.03;16.90;;;-6.20;99.90;;;;;;5056328;28;20253;-81
2022/12/17 23:54:14;;;;;;;32.37;15.20;;;-6.20;99.90;;;;;;5055840;28;20224;-81
2022/12/17 23:56:40;;;;;;;36.37;15.80;;;-6.20;99.90;;;;;;5055262;28;20547;-81
2022/12/17 23:59:05;;;;;;;29.33;16.13;;;-6.20;99.90;;;;;;5056444;28;20223;-81
